Time;durP1;ratioP1;P1;durP2;ratioP2;P2;SDS_P1;SDS_P2;PMS_P1;PMS_P2;Temp;Humidity;BMP_temperature;BMP_pressure;BME280_temperature;BME280_humidity;BME280_pressure;Samples;Min_cycle;Max_cycle;Signal;HPM_P1;HPM_P2
2022/04/03 00:00:13;;;;;;;5.40;5.10;;;0.60;1.00;;;;;;6282146;28;20254;-54
2022/04/03 00:03:15;;;;;;;4.87;4.77;;;0.50;1.00;;;;;;6299383;28;20287;-53
2022/04/03 00:06:20;;;;;;;5.53;5.23;;;0.60;1.00;;;;;;6268868;28;20261;-53
2022/04/03 00:09:23;;;;;;;5.43;5.03;;;0.80;1.00;;;;;;6259557;28;20369;-53
2022/04/03 00:12:26;;;;;;;4.90;4.60;;;0.60;1.00;;;;;;6262371;28;20384;-53
2022/04/03 00:15:29;;;;;;;5.30;5.10;;;0.60;1.00;;;;;;6257495;28;20272;-54
2022/04/03 00:18:32;;;;;;;5.60;5.20;;;0.70;1.00;;;;;;6235835;28;20249;-53
2022/04/03 00:21:37;;;;;;;5.20;4.93;;;0.60;1.00;;;;;;6235962;28;20528;-53
2022/04/03 00:24:41;;;;;;;4.97;4.60;;;0.60;1.00;;;;;;6235316;28;20372;-53
2022/04/03 00:27:44;;;;;;;5.10;4.70;;;0.60;1.00;;;;;;6235495;28;20265;-52
2022/04/03 00:30:46;;;;;;;4.60;4.50;;;0.50;1.00;;;;;;6237047;28;20258;-52
2022/04/03 00:33:49;;;;;;;4.83;4.53;;;0.60;1.00;;;;;;6250077;28;20238;-53
2022/04/03 00:36:54;;;;;;;5.07;4.80;;;0.60;1.00;;;;;;6252256;28;20654;-52
2022/04/03 00:39:57;;;;;;;4.67;4.47;;;0.30;1.00;;;;;;6259448;28;20291;-53
2022/04/03 00:43:00;;;;;;;5.03;4.80;;;0.50;1.00;;;;;;6244427;28;20334;-53
2022/04/03 00:46:03;;;;;;;4.90;4.60;;;0.30;1.00;;;;;;6251841;28;20244;-52
2022/04/03 00:49:06;;;;;;;4.87;4.50;;;0.40;1.00;;;;;;6275646;28;20720;-52
2022/04/03 00:52:10;;;;;;;5.10;4.80;;;0.40;1.00;;;;;;6242943;28;20864;-52
2022/04/03 00:55:13;;;;;;;5.10;4.80;;;0.30;1.00;;;;;;6234543;28;20248;-53
2022/04/03 00:58:16;;;;;;;4.90;4.60;;;0.30;1.00;;;;;;6234212;28;20288;-53
2022/04/03 01:01:21;;;;;;;5.10;4.80;;;0.30;1.00;;;;;;6234088;28;20619;-53
2022/04/03 01:04:23;;;;;;;5.33;5.03;;;0.30;1.00;;;;;;6239988;28;20301;-53
2022/04/03 01:07:27;;;;;;;5.53;5.30;;;0.30;1.00;;;;;;6254762;28;20268;-54
2022/04/03 01:10:30;;;;;;;6.00;5.53;;;0.30;1.00;;;;;;6261234;28;20316;-53
2022/04/03 01:13:33;;;;;;;5.93;5.43;;;0.50;1.00;;;;;;6263205;28;20404;-53
2022/04/03 01:16:36;;;;;;;5.60;5.20;;;0.40;1.00;;;;;;6259014;28;20287;-53
2022/04/03 01:19:39;;;;;;;5.37;5.13;;;0.50;1.00;;;;;;6236846;28;20239;-53
2022/04/03 01:22:43;;;;;;;5.50;5.20;;;0.30;1.00;;;;;;6254926;28;20245;-55
2022/04/03 01:25:47;;;;;;;5.43;5.23;;;0.20;1.00;;;;;;6258513;28;20238;-53
2022/04/03 01:28:51;;;;;;;5.17;4.87;;;0.10;1.00;;;;;;6240110;28;20234;-53
2022/04/03 01:31:54;;;;;;;5.67;5.27;;;0.30;1.00;;;;;;6233937;28;20789;-52
2022/04/03 01:34:57;;;;;;;6.10;5.80;;;0.10;1.00;;;;;;6243161;28;20268;-52
2022/04/03 01:37:59;;;;;;;5.30;5.10;;;0.10;1.00;;;;;;6257243;28;20809;-53
2022/04/03 01:41:04;;;;;;;5.43;5.17;;;0.20;1.00;;;;;;6258949;28;20354;-53
2022/04/03 01:44:07;;;;;;;5.30;5.10;;;0.30;1.00;;;;;;6247352;28;20998;-54
2022/04/03 01:47:10;;;;;;;5.77;5.30;;;0.10;1.00;;;;;;6233376;28;20314;-53
2022/04/03 01:50:13;;;;;;;5.40;5.10;;;0.10;1.00;;;;;;6232942;28;20350;-54
2022/04/03 01:53:15;;;;;;;5.97;5.30;;;0.10;1.00;;;;;;6233667;28;20276;-53
2022/04/03 01:56:19;;;;;;;5.60;5.20;;;0.10;1.00;;;;;;6249745;28;20315;-53
2022/04/03 01:59:22;;;;;;;5.10;4.90;;;0.20;1.00;;;;;;6249743;28;20285;-52
2022/04/03 02:02:25;;;;;;;5.53;5.23;;;0.20;1.00;;;;;;6243411;28;20323;-52
2022/04/03 02:05:28;;;;;;;5.73;5.43;;;0.00;1.00;;;;;;6270922;28;20237;-53
2022/04/03 02:08:31;;;;;;;5.13;4.90;;;0.00;1.00;;;;;;6262096;28;20475;-53
2022/04/03 02:11:35;;;;;;;6.53;6.00;;;0.10;1.00;;;;;;6258691;28;20331;-51
2022/04/03 02:14:38;;;;;;;5.70;5.37;;;0.00;1.00;;;;;;6256972;28;20790;-53
2022/04/03 02:17:41;;;;;;;5.50;5.20;;;0.10;1.00;;;;;;6239033;28;20239;-53
2022/04/03 02:20:44;;;;;;;6.00;5.63;;;0.30;1.00;;;;;;6234378;28;20235;-53
2022/04/03 02:23:47;;;;;;;5.07;4.83;;;0.40;1.00;;;;;;6241233;28;20332;-52
2022/04/03 02:26:51;;;;;;;5.20;4.90;;;0.40;1.00;;;;;;6234996;28;20235;-53
2022/04/03 02:29:54;;;;;;;5.60;5.10;;;0.50;1.00;;;;;;6241940;28;20311;-53
2022/04/03 02:32:57;;;;;;;5.20;4.90;;;0.50;1.00;;;;;;6263103;28;20460;-53
2022/04/03 02:35:59;;;;;;;5.50;5.00;;;0.70;1.00;;;;;;6272089;28;20238;-53
2022/04/03 02:39:02;;;;;;;5.07;4.87;;;0.60;1.00;;;;;;6284785;28;20884;-52
2022/04/03 02:42:07;;;;;;;5.10;4.80;;;0.50;1.00;;;;;;6285862;28;20237;-53
2022/04/03 02:45:11;;;;;;;5.30;4.97;;;0.50;1.00;;;;;;6283617;28;20244;-55
2022/04/03 02:48:13;;;;;;;4.97;4.70;;;0.80;1.00;;;;;;6287649;28;20242;-53
2022/04/03 02:51:17;;;;;;;5.33;5.13;;;0.70;1.00;;;;;;6289124;28;20422;-53
2022/04/03 02:54:20;;;;;;;5.13;4.83;;;0.90;1.00;;;;;;6271397;28;20230;-52
2022/04/03 02:57:24;;;;;;;4.40;4.20;;;0.80;1.00;;;;;;6262575;28;20237;-54
2022/04/03 03:00:27;;;;;;;4.87;4.47;;;0.60;1.00;;;;;;6261725;28;20241;-54
2022/04/03 03:03:29;;;;;;;5.40;5.10;;;1.00;1.00;;;;;;6275563;28;20236;-53
2022/04/03 03:06:32;;;;;;;5.03;4.60;;;1.00;1.00;;;;;;6286846;28;20932;-53
2022/04/03 03:09:35;;;;;;;5.60;5.27;;;0.90;1.00;;;;;;6286269;28;20252;-53
2022/04/03 03:13:04;;;;;;;4.90;4.70;;;0.90;1.00;;;;;;6261625;28;20234;-54
2022/04/03 03:16:07;;;;;;;5.40;5.10;;;1.00;1.00;;;;;;6261999;28;20303;-53
2022/04/03 03:19:10;;;;;;;4.77;4.57;;;1.00;1.00;;;;;;6260920;28;20449;-54
2022/04/03 03:22:13;;;;;;;5.67;5.33;;;1.20;1.00;;;;;;6262122;28;20360;-53
2022/04/03 03:25:15;;;;;;;5.33;5.13;;;1.20;1.00;;;;;;6260706;28;20298;-57
2022/04/03 03:28:19;;;;;;;5.80;5.40;;;0.50;1.00;;;;;;6260791;28;20311;-53
2022/04/03 03:31:23;;;;;;;5.50;5.20;;;1.40;1.00;;;;;;6257837;28;20251;-54
2022/04/03 03:34:26;;;;;;;5.60;5.30;;;1.20;1.00;;;;;;6279911;28;20252;-55
2022/04/03 03:37:29;;;;;;;6.13;5.83;;;1.10;1.00;;;;;;6286062;28;20487;-55
2022/04/03 03:40:32;;;;;;;5.50;5.10;;;1.10;1.00;;;;;;6278446;28;20449;-53
2022/04/03 03:43:36;;;;;;;6.23;5.70;;;1.30;1.00;;;;;;6274592;28;20824;-48
2022/04/03 03:46:39;;;;;;;5.50;4.80;;;1.10;1.00;;;;;;6285834;28;20347;-53
2022/04/03 03:49:42;;;;;;;5.50;5.30;;;1.10;1.00;;;;;;6277731;28;20333;-53
2022/04/03 03:52:44;;;;;;;5.57;5.30;;;1.00;1.00;;;;;;6261230;28;20245;-53
2022/04/03 03:55:47;;;;;;;5.13;4.93;;;1.20;1.00;;;;;;6261654;28;20822;-53
2022/04/03 03:58:51;;;;;;;5.70;5.40;;;1.10;1.00;;;;;;6260275;28;20746;-55
2022/04/03 04:01:54;;;;;;;5.27;5.00;;;1.10;1.00;;;;;;6261241;28;20238;-53
2022/04/03 04:04:57;;;;;;;5.23;5.03;;;1.10;1.00;;;;;;6289446;28;20610;-53
2022/04/03 04:08:00;;;;;;;5.00;4.80;;;1.40;1.00;;;;;;6283336;28;20262;-53
2022/04/03 04:11:03;;;;;;;4.80;4.30;;;1.20;1.00;;;;;;6266330;28;20838;-55
2022/04/03 04:14:08;;;;;;;4.83;4.70;;;1.10;1.00;;;;;;6261049;28;20260;-54
2022/04/03 04:17:11;;;;;;;5.10;4.90;;;1.10;1.00;;;;;;6244800;28;20285;-53
2022/04/03 04:20:16;;;;;;;5.00;4.60;;;1.20;1.00;;;;;;6236390;28;20557;-52
2022/04/03 04:23:19;;;;;;;5.30;5.10;;;1.30;1.00;;;;;;6243297;28;20447;-53
2022/04/03 04:26:21;;;;;;;5.10;4.90;;;1.40;1.00;;;;;;6260357;28;20355;-54
2022/04/03 04:29:25;;;;;;;5.27;4.97;;;1.20;1.00;;;;;;6264932;28;20237;-53
2022/04/03 04:32:28;;;;;;;5.80;5.30;;;1.20;1.00;;;;;;6258006;28;20850;-54
2022/04/03 04:35:31;;;;;;;6.27;5.87;;;1.30;1.00;;;;;;6244918;28;20304;-53
2022/04/03 04:38:34;;;;;;;6.63;6.17;;;1.40;1.00;;;;;;6259289;28;20337;-53
2022/04/03 04:41:37;;;;;;;6.07;5.77;;;1.30;1.00;;;;;;6253496;28;20238;-53
2022/04/03 04:44:41;;;;;;;6.33;5.83;;;1.30;1.00;;;;;;6240246;28;20237;-54
2022/04/03 04:47:45;;;;;;;6.23;6.00;;;1.20;1.00;;;;;;6235471;28;20367;-53
2022/04/03 04:50:47;;;;;;;6.97;6.57;;;1.30;1.00;;;;;;6235605;28;20242;-54
2022/04/03 04:53:56;;;;;;;6.53;6.13;;;1.20;1.00;;;;;;6252321;28;20238;-52
2022/04/03 04:56:59;;;;;;;6.27;6.00;;;1.10;1.00;;;;;;6253198;28;20238;-53
2022/04/03 05:00:13;;;;;;;6.70;6.20;;;1.30;1.00;;;;;;6242125;28;20239;-54
2022/04/03 05:03:16;;;;;;;5.97;5.57;;;1.40;1.00;;;;;;6243093;28;20515;-52
2022/04/03 05:06:22;;;;;;;6.17;5.87;;;1.30;1.00;;;;;;6251962;28;20265;-55
2022/04/03 05:09:26;;;;;;;5.80;5.50;;;1.30;1.00;;;;;;6251199;28;20242;-53
2022/04/03 05:12:29;;;;;;;5.47;5.20;;;1.20;1.00;;;;;;6268867;28;20245;-55
2022/04/03 05:15:33;;;;;;;6.27;5.70;;;1.10;1.00;;;;;;6278201;28;20261;-53
2022/04/03 05:18:36;;;;;;;5.57;5.27;;;1.30;1.00;;;;;;6280966;28;20328;-55
2022/04/03 05:21:39;;;;;;;5.47;5.10;;;1.40;1.00;;;;;;6280620;28;20242;-53
2022/04/03 05:24:42;;;;;;;4.77;4.50;;;1.10;1.00;;;;;;6272262;28;20651;-53
2022/04/03 05:27:45;;;;;;;5.50;5.13;;;1.40;1.00;;;;;;6282789;28;20355;-53
2022/04/03 05:30:49;;;;;;;5.03;4.73;;;1.30;1.00;;;;;;6276779;28;20230;-53
2022/04/03 05:33:53;;;;;;;5.50;5.00;;;1.50;1.00;;;;;;6281674;28;20273;-53
2022/04/03 05:36:56;;;;;;;5.20;4.83;;;1.50;1.00;;;;;;6281985;28;20629;-54
2022/04/03 05:39:59;;;;;;;5.03;4.63;;;1.40;1.00;;;;;;6279324;28;20221;-53
2022/04/03 05:43:02;;;;;;;5.70;5.30;;;1.60;1.00;;;;;;6278880;28;20232;-51
2022/04/03 05:46:07;;;;;;;4.77;4.67;;;1.80;1.00;;;;;;6282497;28;20662;-54
2022/04/03 05:49:10;;;;;;;5.27;5.07;;;1.40;1.00;;;;;;6282620;28;20646;-53
2022/04/03 05:52:12;;;;;;;5.30;5.10;;;1.60;1.00;;;;;;6278871;28;20585;-53
2022/04/03 05:55:16;;;;;;;5.17;4.93;;;1.50;1.00;;;;;;6283757;28;20234;-55
2022/04/03 05:58:19;;;;;;;4.87;4.67;;;1.80;1.00;;;;;;6280132;28;20717;-53
2022/04/03 06:01:24;;;;;;;5.33;4.93;;;1.70;1.00;;;;;;6259347;28;20234;-53
2022/04/03 06:04:27;;;;;;;4.80;4.67;;;1.50;1.00;;;;;;6269963;28;20237;-53
2022/04/03 06:07:30;;;;;;;4.80;4.60;;;1.80;1.00;;;;;;6271130;28;20451;-53
2022/04/03 06:10:34;;;;;;;5.77;5.47;;;1.90;1.00;;;;;;6284585;28;20847;-54
2022/04/03 06:13:37;;;;;;;5.40;5.10;;;2.00;1.00;;;;;;6288613;28;20343;-53
2022/04/03 06:16:41;;;;;;;5.40;4.93;;;1.80;1.00;;;;;;6283055;28;20244;-54
2022/04/03 06:19:44;;;;;;;4.77;4.57;;;1.90;1.00;;;;;;6288057;28;20237;-53
2022/04/03 06:22:46;;;;;;;5.03;4.83;;;2.00;1.00;;;;;;6280392;28;20311;-53
2022/04/03 06:25:53;;;;;;;5.67;5.37;;;2.20;1.00;;;;;;6288387;28;20239;-52
2022/04/03 06:28:56;;;;;;;5.90;5.10;;;1.80;1.00;;;;;;6285901;28;20313;-54
2022/04/03 06:32:05;;;;;;;6.37;5.00;;;2.20;1.00;;;;;;6280197;28;20233;-53
2022/04/03 06:35:09;;;;;;;5.20;4.90;;;2.10;1.00;;;;;;6261806;28;20241;-53
2022/04/03 06:38:12;;;;;;;4.97;4.87;;;2.20;1.00;;;;;;6263163;28;20463;-53
2022/04/03 06:41:17;;;;;;;5.57;5.17;;;2.50;1.00;;;;;;6273712;28;20850;-53
2022/04/03 06:44:20;;;;;;;5.50;5.20;;;2.30;1.00;;;;;;6258300;28;20317;-53
2022/04/03 06:47:24;;;;;;;5.07;4.87;;;2.10;1.00;;;;;;6261400;28;20238;-53
2022/04/03 06:50:27;;;;;;;5.47;5.20;;;2.20;1.00;;;;;;6261635;28;20238;-53
2022/04/03 06:53:30;;;;;;;5.17;4.87;;;2.50;1.00;;;;;;6255513;28;20598;-53
2022/04/03 06:56:33;;;;;;;5.23;5.03;;;3.10;1.00;;;;;;6270716;28;20313;-53
2022/04/03 06:59:35;;;;;;;5.03;4.73;;;3.80;1.00;;;;;;6280130;28;20232;-54
2022/04/03 07:02:39;;;;;;;5.30;5.00;;;3.70;1.00;;;;;;6262709;28;20380;-54
2022/04/03 07:05:42;;;;;;;4.97;4.60;;;3.80;1.00;;;;;;6263655;28;20234;-55
2022/04/03 07:08:47;;;;;;;5.00;4.70;;;4.20;1.00;;;;;;6266799;28;20876;-54
2022/04/03 07:11:49;;;;;;;4.80;4.60;;;4.90;1.00;;;;;;6271867;28;20233;-53
2022/04/03 07:14:52;;;;;;;5.00;4.70;;;4.10;1.00;;;;;;6255398;28;20242;-54
2022/04/03 07:17:56;;;;;;;5.23;4.83;;;4.20;1.00;;;;;;6273003;28;20479;-54
2022/04/03 07:20:59;;;;;;;4.73;4.43;;;4.00;1.00;;;;;;6286559;28;20274;-55
2022/04/03 07:24:01;;;;;;;4.97;4.77;;;4.20;1.00;;;;;;6290386;28;20347;-55
2022/04/03 07:27:04;;;;;;;5.83;4.23;;;4.10;1.00;;;;;;6293076;28;20253;-56
2022/04/03 07:30:08;;;;;;;4.73;4.47;;;4.10;1.00;;;;;;6268734;28;20946;-53
2022/04/03 07:33:14;;;;;;;4.50;4.20;;;4.40;1.00;;;;;;6268565;28;20225;-53
2022/04/03 07:36:17;;;;;;;4.47;4.37;;;4.70;1.00;;;;;;6261737;28;20401;-53
2022/04/03 07:39:20;;;;;;;4.47;4.23;;;4.80;1.00;;;;;;6262551;28;20609;-54
2022/04/03 07:42:23;;;;;;;4.60;4.40;;;4.60;1.00;;;;;;6253508;28;20841;-54
2022/04/03 07:45:26;;;;;;;4.33;4.23;;;4.70;1.00;;;;;;6262659;28;20872;-54
2022/04/03 07:48:30;;;;;;;4.40;4.30;;;5.00;1.00;;;;;;6266408;28;20403;-53
2022/04/03 07:51:34;;;;;;;5.10;4.70;;;4.80;1.00;;;;;;6266014;28;20246;-55
2022/04/03 07:54:38;;;;;;;4.70;4.50;;;5.10;1.00;;;;;;6267537;28;20299;-53
2022/04/03 07:57:41;;;;;;;4.37;4.10;;;4.70;1.00;;;;;;6262104;28;20244;-55
2022/04/03 08:00:45;;;;;;;4.83;4.53;;;4.90;1.00;;;;;;6263844;28;20320;-53
2022/04/03 08:03:49;;;;;;;4.13;4.03;;;4.90;1.00;;;;;;6261539;28;20368;-54
2022/04/03 08:06:51;;;;;;;4.13;3.93;;;5.20;1.00;;;;;;6256776;28;20391;-53
2022/04/03 08:09:54;;;;;;;4.30;4.10;;;5.20;1.00;;;;;;6265550;28;20229;-54
2022/04/03 08:12:57;;;;;;;4.47;4.17;;;5.40;1.00;;;;;;6259924;28;20364;-54
2022/04/03 08:16:01;;;;;;;4.03;3.93;;;5.10;1.00;;;;;;6258763;28;20234;-54
2022/04/03 08:19:06;;;;;;;4.33;3.97;;;5.00;1.00;;;;;;6263754;28;20261;-53
2022/04/03 08:22:08;;;;;;;4.27;3.97;;;4.90;1.00;;;;;;6272773;28;20316;-54
2022/04/03 08:25:12;;;;;;;3.70;3.60;;;4.90;1.00;;;;;;6258906;28;20434;-54
2022/04/03 08:28:17;;;;;;;4.93;3.80;;;5.20;1.00;;;;;;6267704;28;20337;-54
2022/04/03 08:31:20;;;;;;;3.93;3.83;;;5.10;1.00;;;;;;6253051;28;20639;-54
2022/04/03 08:34:24;;;;;;;3.60;3.50;;;5.10;1.00;;;;;;6252445;28;20399;-54
2022/04/03 08:37:45;;;;;;;3.77;3.67;;;5.40;1.00;;;;;;6279833;28;20256;-53
2022/04/03 08:40:52;;;;;;;3.50;3.40;;;5.50;1.00;;;;;;6263528;28;20242;-53
2022/04/03 08:43:55;;;;;;;3.63;3.47;;;5.60;1.00;;;;;;6252776;28;20634;-53
2022/04/03 08:46:59;;;;;;;4.00;3.80;;;5.70;1.00;;;;;;6260300;28;20721;-53
2022/04/03 08:50:04;;;;;;;4.10;4.00;;;5.90;1.00;;;;;;6263621;28;20230;-53
2022/04/03 08:53:08;;;;;;;3.90;3.70;;;5.80;1.00;;;;;;6257401;28;20691;-54
2022/04/03 08:56:11;;;;;;;3.80;3.70;;;5.90;99.90;;;;;;6278894;28;20725;-55
2022/04/03 08:59:14;;;;;;;3.70;3.50;;;5.90;99.90;;;;;;6278786;28;20396;-53
2022/04/03 09:02:16;;;;;;;4.20;3.80;;;6.10;99.90;;;;;;6281898;28;20274;-55
2022/04/03 09:05:21;;;;;;;3.73;3.63;;;6.40;99.90;;;;;;6279887;28;20717;-54
2022/04/03 09:08:36;;;;;;;3.70;3.40;;;6.60;99.90;;;;;;6283057;28;20229;-55
2022/04/03 09:11:39;;;;;;;3.73;3.60;;;6.30;99.90;;;;;;6276266;28;20814;-54
2022/04/03 09:14:47;;;;;;;3.93;3.73;;;6.40;99.90;;;;;;6283162;28;20247;-53
2022/04/03 09:17:52;;;;;;;3.77;3.67;;;6.20;99.90;;;;;;6289504;28;20243;-53
2022/04/03 09:21:00;;;;;;;3.87;3.63;;;6.20;99.90;;;;;;6277367;28;20443;-52
2022/04/03 09:24:05;;;;;;;3.67;3.57;;;6.10;99.90;;;;;;6276745;28;20233;-55
2022/04/03 09:27:07;;;;;;;4.00;3.80;;;6.10;99.90;;;;;;6286063;28;20226;-54
2022/04/03 09:30:11;;;;;;;3.60;3.50;;;6.00;99.90;;;;;;6285747;28;20710;-54
2022/04/03 09:33:19;;;;;;;3.50;3.40;;;6.10;99.90;;;;;;6284477;28;20549;-53
2022/04/03 09:36:23;;;;;;;3.73;3.27;;;6.20;99.90;;;;;;6289517;28;20247;-53
2022/04/03 09:39:27;;;;;;;5.67;3.40;;;6.40;99.90;;;;;;6280679;28;20237;-53
2022/04/03 09:42:30;;;;;;;3.20;3.20;;;6.40;99.90;;;;;;6282262;28;20236;-53
2022/04/03 09:45:44;;;;;;;3.50;3.40;;;6.40;99.90;;;;;;6283488;28;20723;-53
2022/04/03 09:48:47;;;;;;;3.47;3.37;;;6.60;99.90;;;;;;6277375;28;20640;-49
2022/04/03 09:51:51;;;;;;;3.53;3.43;;;6.70;99.90;;;;;;6282629;28;20493;-52
2022/04/03 09:54:54;;;;;;;3.87;3.77;;;6.30;99.90;;;;;;6279545;28;20495;-53
2022/04/03 09:58:03;;;;;;;4.13;3.83;;;6.50;99.90;;;;;;6273936;28;20375;-55
2022/04/03 10:01:24;;;;;;;4.03;3.70;;;6.70;99.90;;;;;;6277026;28;20737;-54
2022/04/03 10:04:27;;;;;;;4.23;4.03;;;6.70;99.90;;;;;;6288327;28;20229;-54
2022/04/03 10:07:32;;;;;;;3.83;3.73;;;6.90;99.90;;;;;;6275564;28;20249;-53
2022/04/03 10:10:37;;;;;;;4.00;3.70;;;6.70;99.90;;;;;;6282986;28;20290;-55
2022/04/03 10:13:40;;;;;;;4.00;3.70;;;6.80;99.90;;;;;;6276921;28;20225;-56
2022/04/03 10:16:42;;;;;;;3.80;3.70;;;7.00;99.90;;;;;;6280010;28;20244;-57
2022/04/03 10:19:46;;;;;;;3.80;3.70;;;7.00;99.90;;;;;;6279223;28;20364;-54
2022/04/03 10:22:55;;;;;;;3.73;3.60;;;7.00;99.90;;;;;;6287915;28;20237;-54
2022/04/03 10:25:59;;;;;;;3.90;3.80;;;7.00;99.90;;;;;;6278240;28;20229;-53
2022/04/03 10:29:05;;;;;;;3.70;3.33;;;6.80;99.90;;;;;;6276592;28;20241;-53
2022/04/03 10:32:09;;;;;;;4.10;3.90;;;6.60;99.90;;;;;;6274945;28;20236;-54
2022/04/03 10:35:11;;;;;;;4.13;4.00;;;6.60;99.90;;;;;;6279410;28;20328;-53
2022/04/03 10:38:15;;;;;;;4.00;3.80;;;6.60;99.90;;;;;;6276799;28;20229;-55
2022/04/03 10:41:27;;;;;;;5.23;3.87;;;6.70;99.90;;;;;;6279539;28;20264;-53
2022/04/03 10:44:30;;;;;;;3.37;3.37;;;6.60;99.90;;;;;;6276428;28;20236;-53
2022/04/03 10:47:32;;;;;;;4.00;3.90;;;6.80;99.90;;;;;;6276762;28;20336;-54
2022/04/03 10:50:56;;;;;;;3.53;3.53;;;7.10;99.90;;;;;;6280739;28;20295;-53
2022/04/03 10:54:02;;;;;;;3.70;3.50;;;7.30;99.90;;;;;;6286596;28;20240;-53
2022/04/03 10:57:37;;;;;;;3.83;3.57;;;7.20;99.90;;;;;;6282815;28;20722;-53
2022/04/03 11:00:41;;;;;;;3.93;3.73;;;7.10;99.90;;;;;;6283451;28;20306;-53
2022/04/03 11:03:55;;;;;;;3.87;3.60;;;7.30;99.90;;;;;;6283076;28;20328;-54
2022/04/03 11:07:13;;;;;;;3.40;3.30;;;7.70;99.90;;;;;;6276889;28;20377;-54
2022/04/03 11:10:38;;;;;;;3.70;3.47;;;8.10;99.90;;;;;;6283236;28;20646;-55
2022/04/03 11:13:42;;;;;;;5.73;3.87;;;8.50;99.90;;;;;;6285303;28;20267;-54
2022/04/03 11:16:52;;;;;;;3.50;3.40;;;8.60;99.90;;;;;;6282145;28;20663;-55
2022/04/03 11:19:59;;;;;;;3.77;3.67;;;8.30;99.90;;;;;;6286239;28;20383;-55
2022/04/03 11:23:03;;;;;;;10.20;3.73;;;8.10;99.90;;;;;;6276711;28;20237;-55
2022/04/03 11:26:08;;;;;;;3.60;3.50;;;8.10;99.90;;;;;;6287793;28;20797;-54
2022/04/03 11:29:12;;;;;;;4.77;3.40;;;8.20;99.90;;;;;;6296324;28;20660;-54
2022/04/03 11:32:15;;;;;;;3.77;3.67;;;8.20;99.90;;;;;;6284026;28;20310;-54
2022/04/03 11:35:35;;;;;;;3.70;3.50;;;8.40;99.90;;;;;;6290290;28;20241;-54
2022/04/03 11:38:40;;;;;;;3.50;3.40;;;8.60;99.90;;;;;;6268347;28;20502;-53
2022/04/03 11:41:51;;;;;;;3.77;3.63;;;8.50;99.90;;;;;;6255343;28;20238;-54
2022/04/03 11:44:54;;;;;;;4.83;3.57;;;8.50;99.90;;;;;;6261031;28;20323;-55
2022/04/03 11:48:16;;;;;;;3.50;3.30;;;8.20;99.90;;;;;;6253518;28;20336;-54
2022/04/03 11:51:20;;;;;;;3.33;3.30;;;8.20;99.90;;;;;;6278649;28;20226;-55
2022/04/03 11:54:25;;;;;;;3.73;3.63;;;8.20;99.90;;;;;;6264519;28;20790;-54
2022/04/03 11:57:29;;;;;;;4.07;3.87;;;8.30;99.90;;;;;;6253437;28;20230;-55
2022/04/03 12:00:32;;;;;;;5.50;3.97;;;8.40;99.90;;;;;;6259654;28;20241;-54
2022/04/03 12:03:42;;;;;;;4.20;3.60;;;8.20;99.90;;;;;;6253840;28;21306;-53
2022/04/03 12:06:47;;;;;;;3.33;3.30;;;8.20;99.90;;;;;;6251621;28;20241;-55
2022/04/03 12:09:50;;;;;;;3.50;3.40;;;8.30;99.90;;;;;;6256986;28;20476;-54
2022/04/03 12:12:58;;;;;;;3.83;3.53;;;8.50;99.90;;;;;;6253241;28;20280;-55
2022/04/03 12:16:00;;;;;;;3.80;3.70;;;8.60;99.90;;;;;;6257225;28;20234;-54
2022/04/03 12:19:05;;;;;;;3.63;3.47;;;8.50;99.90;;;;;;6264318;28;20566;-53
2022/04/03 12:22:10;;;;;;;3.80;3.60;;;8.40;99.90;;;;;;6262346;28;20236;-55
2022/04/03 12:25:13;;;;;;;3.93;3.60;;;8.30;99.90;;;;;;6259638;28;20249;-58
2022/04/03 12:28:21;;;;;;;3.63;3.33;;;8.20;99.90;;;;;;6254428;28;20230;-53
2022/04/03 12:31:28;;;;;;;6.73;3.93;;;8.10;99.90;;;;;;6257057;28;20245;-54
2022/04/03 12:34:33;;;;;;;4.73;3.57;;;8.10;99.90;;;;;;6265311;28;20297;-55
2022/04/03 12:37:37;;;;;;;3.20;3.10;;;8.20;99.90;;;;;;6270047;28;20321;-52
2022/04/03 12:40:46;;;;;;;4.03;3.20;;;8.30;99.90;;;;;;6259329;28;20347;-55
2022/04/03 12:43:50;;;;;;;3.30;3.20;;;8.30;99.90;;;;;;6254945;28;20728;-55
2022/04/03 12:46:53;;;;;;;3.50;3.30;;;8.40;99.90;;;;;;6270779;28;20302;-54
2022/04/03 12:50:19;;;;;;;3.37;3.27;;;8.40;99.90;;;;;;6268499;28;20368;-55
2022/04/03 12:53:25;;;;;;;4.07;3.83;;;8.50;99.90;;;;;;6265979;28;20306;-55
2022/04/03 12:58:24;;;;;;;3.30;3.30;;;8.40;99.90;;;;;;6270073;28;20269;-53
2022/04/03 12:59:52;;;;;;;4.13;3.30;;;8.50;99.90;;;;;;6258935;28;20424;-53
2022/04/03 13:02:55;;;;;;;3.70;3.50;;;8.50;99.90;;;;;;6270140;28;20370;-54
2022/04/03 13:06:00;;;;;;;4.13;3.63;;;8.50;99.90;;;;;;6259430;28;20763;-53
2022/04/03 13:09:05;;;;;;;3.70;3.50;;;8.50;99.90;;;;;;6260758;28;20308;-55
2022/04/03 13:12:09;;;;;;;3.63;3.47;;;8.50;99.90;;;;;;6261705;28;20312;-53
2022/04/03 13:15:13;;;;;;;4.00;3.80;;;8.50;99.90;;;;;;6265278;28;20272;-54
2022/04/03 13:18:15;;;;;;;3.80;3.57;;;8.40;99.90;;;;;;6269153;28;20235;-52
2022/04/03 13:21:19;;;;;;;3.23;3.10;;;8.30;99.90;;;;;;6281587;28;20288;-54
2022/04/03 13:24:22;;;;;;;3.53;3.37;;;8.20;99.90;;;;;;6287709;28;20297;-52
2022/04/03 13:27:28;;;;;;;3.20;3.00;;;8.30;99.90;;;;;;6284249;28;20318;-53
2022/04/03 13:30:34;;;;;;;3.70;3.40;;;8.30;99.90;;;;;;6279200;28;20260;-53
2022/04/03 13:33:37;;;;;;;4.00;3.40;;;8.60;99.90;;;;;;6282585;28;20710;-54
2022/04/03 13:36:39;;;;;;;3.83;3.60;;;8.60;99.90;;;;;;6280736;28;20256;-54
2022/04/03 13:39:42;;;;;;;3.10;3.00;;;8.40;99.90;;;;;;6285007;28;20240;-54
2022/04/03 13:42:45;;;;;;;3.47;3.23;;;8.50;99.90;;;;;;6284969;28;20236;-53
2022/04/03 13:45:59;;;;;;;3.00;2.93;;;8.50;99.90;;;;;;6284599;28;20750;-55
2022/04/03 13:49:02;;;;;;;3.23;3.20;;;8.60;99.90;;;;;;6265478;28;20375;-53
2022/04/03 13:52:05;;;;;;;3.57;3.47;;;8.50;99.90;;;;;;6272915;28;20256;-52
2022/04/03 13:55:09;;;;;;;3.43;3.30;;;8.40;99.90;;;;;;6278678;28;20375;-53
2022/04/03 13:58:12;;;;;;;3.20;3.10;;;8.20;99.90;;;;;;6284159;28;20225;-53
2022/04/03 14:01:17;;;;;;;4.17;3.10;;;8.10;99.90;;;;;;6283757;28;20367;-53
2022/04/03 14:04:20;;;;;;;2.93;2.73;;;8.10;99.90;;;;;;6275042;28;20229;-56
2022/04/03 14:07:23;;;;;;;7.77;3.27;;;8.10;99.90;;;;;;6278662;28;20571;-54
2022/04/03 14:10:25;;;;;;;3.47;3.37;;;8.10;99.90;;;;;;6290699;28;20322;-54
2022/04/03 14:13:30;;;;;;;3.20;3.10;;;8.10;99.90;;;;;;6285837;28;20848;-55
2022/04/03 14:16:34;;;;;;;5.87;3.27;;;8.20;99.90;;;;;;6276783;28;20460;-55
2022/04/03 14:19:37;;;;;;;6.00;3.10;;;8.30;99.90;;;;;;6284299;28;20232;-54
2022/04/03 14:22:40;;;;;;;3.40;3.10;;;8.30;99.90;;;;;;6277128;28;20766;-53
2022/04/03 14:25:43;;;;;;;3.23;3.23;;;8.20;99.90;;;;;;6278513;28;20241;-53
2022/04/03 14:28:45;;;;;;;3.10;3.00;;;8.20;99.90;;;;;;6289648;28;20239;-54
2022/04/03 14:31:49;;;;;;;3.20;3.20;;;8.10;99.90;;;;;;6289968;28;20221;-55
2022/04/03 14:34:52;;;;;;;3.57;3.30;;;8.10;99.90;;;;;;6287184;28;20240;-53
2022/04/03 14:37:56;;;;;;;5.93;3.70;;;8.20;99.90;;;;;;6284651;28;22650;-53
2022/04/03 14:40:58;;;;;;;3.73;3.40;;;8.30;99.90;;;;;;6285041;28;20259;-54
2022/04/03 14:44:02;;;;;;;3.43;3.23;;;8.20;99.90;;;;;;6277067;28;20972;-54
2022/04/03 14:47:06;;;;;;;3.63;3.40;;;8.20;99.90;;;;;;6284328;28;20371;-54
2022/04/03 14:50:12;;;;;;;3.70;3.50;;;8.10;99.90;;;;;;6285795;28;20422;-56
2022/04/03 14:53:16;;;;;;;3.73;3.43;;;8.10;99.90;;;;;;6283489;28;20261;-56
2022/04/03 14:56:20;;;;;;;3.67;3.37;;;8.20;99.90;;;;;;6287940;28;20229;-54
2022/04/03 14:59:23;;;;;;;5.63;3.70;;;8.30;99.90;;;;;;6287328;28;20278;-52
2022/04/03 15:02:27;;;;;;;9.10;3.30;;;8.40;99.90;;;;;;6289507;28;20327;-52
2022/04/03 15:05:31;;;;;;;3.10;2.90;;;8.20;99.90;;;;;;6295316;28;20654;-54
2022/04/03 15:08:34;;;;;;;3.37;3.30;;;8.00;99.90;;;;;;6285178;28;20240;-54
2022/04/03 15:11:36;;;;;;;5.17;3.30;;;7.80;1.00;;;;;;6283652;28;20855;-53
2022/04/03 15:14:40;;;;;;;3.30;3.20;;;7.50;1.00;;;;;;6284833;28;20787;-56
2022/04/03 15:17:46;;;;;;;4.00;3.63;;;7.60;1.00;;;;;;6284887;28;20229;-55
2022/04/03 15:20:48;;;;;;;3.40;3.30;;;7.60;1.00;;;;;;6287224;28;20290;-53
2022/04/03 15:23:52;;;;;;;3.13;3.03;;;7.70;1.00;;;;;;6288411;28;20229;-54
2022/04/03 15:26:54;;;;;;;4.20;3.37;;;7.90;1.00;;;;;;6285557;28;20252;-54
2022/04/03 15:29:58;;;;;;;3.40;3.10;;;8.00;1.00;;;;;;6282506;28;20321;-55
2022/04/03 15:33:03;;;;;;;3.37;3.30;;;8.00;1.00;;;;;;6283987;28;20594;-54
2022/04/03 15:36:06;;;;;;;3.60;3.33;;;7.80;1.00;;;;;;6290139;28;20233;-53
2022/04/03 15:39:09;;;;;;;4.63;3.10;;;7.80;1.00;;;;;;6286711;28;20321;-55
2022/04/03 15:42:12;;;;;;;3.23;3.07;;;7.70;1.00;;;;;;6280774;28;20239;-54
2022/04/03 15:45:15;;;;;;;3.40;3.20;;;7.60;1.00;;;;;;6284366;28;20241;-55
2022/04/03 15:48:19;;;;;;;3.53;3.17;;;7.50;1.00;;;;;;6283926;28;20230;-56
2022/04/03 15:51:23;;;;;;;3.93;3.50;;;7.60;1.00;;;;;;6286199;28;20316;-54
2022/04/03 15:54:25;;;;;;;8.30;3.50;;;7.40;1.00;;;;;;6284246;28;20603;-53
2022/04/03 15:57:29;;;;;;;3.60;3.40;;;7.30;1.00;;;;;;6285826;28;20542;-55
2022/04/03 16:00:32;;;;;;;3.40;3.20;;;7.10;1.00;;;;;;6288889;28;20322;-53
2022/04/03 16:03:36;;;;;;;3.57;3.30;;;7.00;1.00;;;;;;6280389;28;20301;-54
2022/04/03 16:06:39;;;;;;;3.60;3.30;;;7.00;1.00;;;;;;6284017;28;20237;-55
2022/04/03 16:09:42;;;;;;;3.93;3.73;;;7.00;1.00;;;;;;6285835;28;20225;-51
2022/04/03 16:12:44;;;;;;;3.70;3.57;;;7.00;1.00;;;;;;6286496;28;20749;-52
2022/04/03 16:15:47;;;;;;;3.33;3.23;;;7.00;1.00;;;;;;6281092;28;20314;-53
2022/04/03 16:18:51;;;;;;;3.73;3.53;;;7.00;1.00;;;;;;6292997;28;20235;-53